Time;durP1;ratioP1;P1;durP2;ratioP2;P2;SDS_P1;SDS_P2;PMS_P1;PMS_P2;Temp;Humidity;BMP_temperature;BMP_pressure;BME280_temperature;BME280_humidity;BME280_pressure;Samples;Min_cycle;Max_cycle;Signal;HPM_P1;HPM_P2
2023/05/09 00:01:31;;;;;;;;;;;16.20;83.70;;;;;;4991290;28;19918;-83
2023/05/09 00:03:57;;;;;;;;;;;16.10;83.70;;;;;;4984072;28;19988;-85
2023/05/09 00:06:26;;;;;;;;;;;16.10;83.90;;;;;;4979422;28;19913;-84
2023/05/09 00:08:52;;;;;;;;;;;16.10;84.10;;;;;;4978892;28;19914;-83
2023/05/09 00:11:17;;;;;;;;;;;16.10;84.00;;;;;;4978125;28;19941;-82
2023/05/09 00:13:43;;;;;;;;;;;16.10;84.00;;;;;;4985719;28;19929;-83
2023/05/09 00:16:09;;;;;;;;;;;16.10;84.00;;;;;;4974163;28;20381;-83
2023/05/09 00:18:35;;;;;;;;;;;16.00;84.20;;;;;;4991959;28;20008;-83
2023/05/09 00:21:03;;;;;;;;;;;16.00;84.10;;;;;;4971103;28;19933;-83
2023/05/09 00:23:31;;;;;;;;;;;16.00;84.30;;;;;;4971920;28;19921;-82
2023/05/09 00:25:57;;;;;;;;;;;16.00;84.30;;;;;;4968025;28;20286;-83
2023/05/09 00:28:23;;;;;;;;;;;15.90;84.30;;;;;;4982632;28;19941;-83
2023/05/09 00:30:48;;;;;;;;;;;15.90;84.40;;;;;;4972039;28;20433;-83
2023/05/09 00:33:14;;;;;;;;;;;15.80;84.50;;;;;;4970640;28;19914;-83
2023/05/09 00:35:39;;;;;;;;;;;15.80;84.70;;;;;;4968864;28;19952;-83
2023/05/09 00:38:05;;;;;;;;;;;15.80;84.60;;;;;;4988120;28;20161;-83
2023/05/09 00:40:30;;;;;;;;;;;15.70;84.80;;;;;;4974258;28;19922;-83
2023/05/09 00:42:57;;;;;;;;;;;15.80;84.70;;;;;;4974229;28;19914;-83
2023/05/09 00:45:23;;;;;;;;;;;15.70;84.70;;;;;;4977113;28;20005;-83
2023/05/09 00:47:48;;;;;;;;;;;15.70;84.70;;;;;;4989136;28;19978;-84
2023/05/09 00:50:14;;;;;;;;;;;15.70;84.90;;;;;;4992239;28;19914;-84
2023/05/09 00:52:39;;;;;;;;;;;15.60;84.80;;;;;;4982384;28;19944;-83
2023/05/09 00:55:07;;;;;;;;;;;15.60;84.90;;;;;;4988458;28;19918;-83
2023/05/09 00:57:33;;;;;;;;;;;15.60;84.90;;;;;;4983071;28;20005;-83
2023/05/09 00:59:59;;;;;;;;;;;15.50;85.10;;;;;;4978147;28;19996;-83
2023/05/09 01:02:24;;;;;;;;;;;15.40;85.10;;;;;;4977527;28;20416;-84
2023/05/09 01:04:50;;;;;;;;;;;15.40;85.20;;;;;;4978831;28;19958;-84
2023/05/09 01:07:25;;;;;;;;;;;15.50;85.10;;;;;;4981941;28;20301;-84
2023/05/09 01:10:03;;;;;;;;;;;15.40;85.20;;;;;;4989341;28;19918;-85
2023/05/09 01:12:48;;;;;;;;;;;15.30;85.30;;;;;;4971085;28;19938;-84
2023/05/09 01:15:17;;;;;;;;;;;15.40;85.40;;;;;;4975616;28;19938;-84
2023/05/09 01:17:58;;;;;;;;;;;15.30;85.20;;;;;;4969022;28;19922;-84
2023/05/09 01:20:36;;;;;;;;;;;15.30;85.40;;;;;;4971693;28;19918;-84
2023/05/09 01:23:13;;;;;;;;;;;15.30;85.10;;;;;;4979796;28;19922;-83
2023/05/09 01:25:57;;;;;;;;;;;15.20;85.20;;;;;;4977237;28;19914;-83
2023/05/09 01:28:23;;;;;;;;;;;15.20;85.20;;;;;;4972225;28;19920;-83
2023/05/09 01:30:50;;;;;;;;;;;15.20;85.40;;;;;;4972342;28;19914;-83
2023/05/09 01:33:16;;;;;;;;;;;15.20;85.30;;;;;;4973118;28;19954;-83
2023/05/09 01:35:44;;;;;;;;;;;15.20;85.30;;;;;;4973698;28;20485;-83
2023/05/09 01:38:12;;;;;;;;;;;15.20;85.50;;;;;;4981414;28;20345;-83
2023/05/09 01:40:38;;;;;;;;;;;15.30;85.20;;;;;;4980636;28;19925;-83
2023/05/09 01:43:05;;;;;;;;;;;15.30;85.30;;;;;;4973853;28;19921;-84
2023/05/09 01:45:31;;;;;;;;;;;15.20;85.40;;;;;;4984922;28;19975;-84
2023/05/09 01:47:57;;;;;;;;;;;15.20;85.30;;;;;;4984024;28;20001;-84
2023/05/09 01:50:23;;;;;;;;;;;15.20;85.30;;;;;;4975038;28;19914;-84
2023/05/09 01:52:51;;;;;;;;;;;15.20;85.30;;;;;;4979873;28;19914;-83
2023/05/09 01:55:18;;;;;;;;;;;15.30;85.30;;;;;;4977509;28;20340;-84
2023/05/09 01:57:44;;;;;;;;;;;15.30;85.00;;;;;;4982293;28;19918;-84
2023/05/09 02:00:12;;;;;;;;;;;15.30;85.00;;;;;;4985993;28;19920;-83
2023/05/09 02:02:37;;;;;;;;;;;15.30;85.20;;;;;;4985680;28;19964;-84
2023/05/09 02:05:03;;;;;;;;;;;15.20;85.20;;;;;;4978862;28;19918;-85
2023/05/09 02:07:29;;;;;;;;;;;15.30;85.10;;;;;;4983385;28;19914;-85
2023/05/09 02:09:56;;;;;;;;;;;15.30;85.30;;;;;;4971635;28;20407;-84
2023/05/09 02:12:22;;;;;;;;;;;15.20;85.30;;;;;;4980594;28;19949;-85
2023/05/09 02:14:48;;;;;;;;;;;15.20;85.30;;;;;;4971376;28;19926;-84
2023/05/09 02:17:15;;;;;;;;;;;15.20;85.20;;;;;;4982339;28;19927;-84
2023/05/09 02:19:41;;;;;;;;;;;15.10;85.00;;;;;;4991878;28;20013;-84
2023/05/09 02:22:07;;;;;;;;;;;15.10;84.90;;;;;;4975224;28;19980;-84
2023/05/09 02:24:35;;;;;;;;;;;15.10;85.30;;;;;;4973845;28;20398;-84
2023/05/09 02:27:04;;;;;;;;;;;15.20;85.10;;;;;;4981681;28;19914;-84
2023/05/09 02:29:39;;;;;;;;;;;15.10;85.30;;;;;;4976473;28;19914;-84
2023/05/09 02:32:15;;;;;;;;;;;15.10;85.40;;;;;;4976123;28;19977;-84
2023/05/09 02:34:41;;;;;;;;;;;15.10;85.50;;;;;;4971867;28;19930;-84
2023/05/09 02:37:07;;;;;;;;;;;15.10;85.50;;;;;;4984667;28;19914;-84
2023/05/09 02:39:33;;;;;;;;;;;15.10;85.70;;;;;;4979787;28;19918;-84
2023/05/09 02:42:04;;;;;;;;;;;15.10;85.70;;;;;;4978788;28;19925;-84
2023/05/09 02:44:30;;;;;;;;;;;15.10;85.80;;;;;;4978300;28;19918;-84
2023/05/09 02:46:55;;;;;;;;;;;15.20;85.80;;;;;;4976427;28;19921;-84
2023/05/09 02:49:20;;;;;;;;;;;15.20;85.40;;;;;;4996712;28;20070;-84
2023/05/09 02:51:46;;;;;;;;;;;15.20;85.50;;;;;;4975881;28;19948;-84
2023/05/09 02:54:11;;;;;;;;;;;15.20;85.60;;;;;;4990658;28;19914;-85
2023/05/09 02:59:05;;;;;;;;;;;15.20;85.80;;;;;;5031723;28;19929;-81
2023/05/09 03:01:30;;;;;;;;;;;15.20;85.90;;;;;;5011387;28;19921;-81
2023/05/09 03:03:55;;;;;;;;;;;15.30;86.00;;;;;;5010576;28;20100;-81
2023/05/09 03:06:21;;;;;;;;;;;15.20;85.80;;;;;;5029482;28;19917;-81
2023/05/09 03:08:46;;;;;;;;;;;15.20;85.90;;;;;;5015824;28;19917;-81
2023/05/09 03:11:12;;;;;;;;;;;15.20;85.80;;;;;;5005499;28;19913;-82
2023/05/09 03:13:37;;;;;;;;;;;15.30;85.90;;;;;;5021802;28;19917;-82
2023/05/09 03:16:04;;;;;;;;;;;15.30;85.80;;;;;;5003367;28;19919;-81
2023/05/09 03:18:29;;;;;;;;;;;15.30;85.80;;;;;;5019955;28;19917;-81
2023/05/09 03:20:55;;;;;;;;;;;15.30;85.70;;;;;;5013542;28;19924;-82
2023/05/09 03:23:20;;;;;;;;;;;15.30;85.50;;;;;;5010995;28;19909;-82
2023/05/09 03:25:45;;;;;;;;;;;15.30;85.50;;;;;;5027239;28;19920;-82
2023/05/09 03:28:11;;;;;;;;;;;15.30;85.60;;;;;;5039194;28;20361;-82
2023/05/09 03:30:37;;;;;;;;;;;15.30;85.60;;;;;;5013345;28;20324;-82
2023/05/09 03:33:03;;;;;;;;;;;15.30;85.60;;;;;;4997020;28;20386;-82
2023/05/09 03:35:29;;;;;;;;;;;15.40;85.50;;;;;;5024679;28;19939;-82
2023/05/09 03:37:54;;;;;;;;;;;15.40;85.70;;;;;;5020434;28;19928;-83
2023/05/09 03:40:20;;;;;;;;;;;15.40;85.70;;;;;;5020075;28;19917;-81
2023/05/09 03:42:45;;;;;;;;;;;15.50;85.60;;;;;;5033740;28;20361;-82
2023/05/09 03:45:11;;;;;;;;;;;15.40;85.60;;;;;;5006051;28;19952;-82
2023/05/09 03:47:36;;;;;;;;;;;15.50;85.30;;;;;;5010470;28;19913;-82
2023/05/09 03:50:03;;;;;;;;;;;15.60;85.20;;;;;;5011851;28;19924;-82
2023/05/09 03:52:28;;;;;;;;;;;15.50;85.40;;;;;;5015787;28;19920;-81
2023/05/09 03:54:54;;;;;;;;;;;15.50;85.30;;;;;;5003815;28;19913;-82
2023/05/09 03:57:19;;;;;;;;;;;15.50;85.10;;;;;;5023585;28;20018;-81
2023/05/09 03:59:44;;;;;;;;;;;15.50;85.20;;;;;;5008055;28;19913;-82
2023/05/09 04:02:10;;;;;;;;;;;15.50;85.10;;;;;;5017358;28;19921;-82
2023/05/09 04:04:36;;;;;;;;;;;15.60;85.20;;;;;;5003877;28;19917;-81
2023/05/09 04:07:01;;;;;;;;;;;15.50;85.00;;;;;;5017234;28;20300;-80
2023/05/09 04:09:27;;;;;;;;;;;15.60;85.00;;;;;;5011307;28;19936;-81
2023/05/09 04:11:53;;;;;;;;;;;15.60;85.00;;;;;;5000293;28;19932;-83
2023/05/09 04:14:18;;;;;;;;;;;15.60;85.10;;;;;;5029357;28;19942;-83
2023/05/09 04:16:44;;;;;;;;;;;15.70;84.60;;;;;;5003077;28;19921;-83
2023/05/09 04:19:09;;;;;;;;;;;15.80;84.60;;;;;;5003324;28;19917;-81
2023/05/09 04:21:35;;;;;;;;;;;15.80;84.60;;;;;;5003642;28;20376;-82
2023/05/09 04:24:00;;;;;;;;;;;15.90;84.50;;;;;;4997155;28;19921;-83
2023/05/09 04:26:26;;;;;;;;;;;15.80;84.50;;;;;;5003490;28;19937;-81
2023/05/09 04:28:52;;;;;;;;;;;15.90;84.60;;;;;;5008174;28;20289;-82
2023/05/09 04:31:18;;;;;;;;;;;15.80;84.70;;;;;;5013349;28;19909;-82
2023/05/09 04:33:43;;;;;;;;;;;15.90;84.60;;;;;;5031809;28;19916;-82
2023/05/09 04:36:09;;;;;;;;;;;15.80;84.90;;;;;;5012613;28;19924;-83
2023/05/09 04:38:34;;;;;;;;;;;15.80;84.90;;;;;;5002168;28;19920;-83
2023/05/09 04:41:00;;;;;;;;;;;15.80;84.90;;;;;;5011828;28;19922;-82
2023/05/09 04:43:26;;;;;;;;;;;16.00;84.60;;;;;;5038781;22;20038;-84
2023/05/09 04:45:52;;;;;;;;;;;16.00;84.70;;;;;;4992411;28;19918;-84
2023/05/09 04:48:18;;;;;;;;;;;16.00;84.40;;;;;;4977546;28;19984;-85
2023/05/09 04:50:43;;;;;;;;;;;16.10;84.20;;;;;;4996078;28;19914;-85
2023/05/09 04:53:09;;;;;;;;;;;16.10;83.90;;;;;;4977589;28;19922;-84
2023/05/09 04:55:35;;;;;;;;;;;16.00;84.60;;;;;;4987470;28;19956;-86
2023/05/09 04:58:00;;;;;;;;;;;16.00;84.70;;;;;;4981956;28;20287;-86
2023/05/09 05:00:26;;;;;;;;;;;16.00;85.00;;;;;;4982573;28;19925;-88
2023/05/09 05:02:51;;;;;;;;;;;16.00;84.80;;;;;;4977762;28;19915;-89
2023/05/09 05:05:17;;;;;;;;;;;16.10;84.50;;;;;;4998128;28;20366;-91
2023/05/09 05:07:42;;;;;;;;;;;16.10;84.30;;;;;;4976432;28;19988;-87
2023/05/09 05:10:08;;;;;;;;;;;16.10;84.70;;;;;;4991373;28;19996;-86
2023/05/09 05:12:33;;;;;;;;;;;16.10;84.40;;;;;;4991336;28;20422;-86
2023/05/09 05:14:59;;;;;;;;;;;16.10;84.10;;;;;;4998462;28;19902;-86
2023/05/09 05:17:24;;;;;;;;;;;16.10;84.30;;;;;;5017749;28;19898;-88
2023/05/09 05:19:50;;;;;;;;;;;16.10;84.20;;;;;;5004510;28;19902;-87
2023/05/09 05:22:15;;;;;;;;;;;16.10;84.40;;;;;;5003215;28;19909;-87
2023/05/09 05:24:41;;;;;;;;;;;16.10;84.20;;;;;;4999544;28;19921;-87
2023/05/09 05:27:06;;;;;;;;;;;16.10;84.40;;;;;;4980285;28;19920;-87
2023/05/09 05:29:32;;;;;;;;;;;16.10;84.60;;;;;;5004393;28;20431;-87
2023/05/09 05:31:57;;;;;;;;;;;16.10;84.90;;;;;;4978876;28;19920;-89
2023/05/09 05:34:23;;;;;;;;;;;16.00;85.00;;;;;;4992165;28;20334;-86
2023/05/09 05:36:48;;;;;;;;;;;16.00;85.10;;;;;;4996355;28;20390;-86
2023/05/09 05:39:14;;;;;;;;;;;16.10;85.30;;;;;;4978303;28;19909;-87
2023/05/09 05:41:39;;;;;;;;;;;16.10;85.50;;;;;;4978975;28;19918;-86
2023/05/09 05:44:05;;;;;;;;;;;16.10;85.50;;;;;;4978803;28;20009;-86
2023/05/09 05:46:30;;;;;;;;;;;16.10;85.30;;;;;;4996266;28;19910;-86
2023/05/09 05:48:56;;;;;;;;;;;16.10;85.40;;;;;;4979351;28;19909;-86
2023/05/09 05:51:21;;;;;;;;;;;16.10;85.30;;;;;;4996597;28;20544;-86
2023/05/09 05:53:47;;;;;;;;;;;16.20;85.30;;;;;;4981104;28;20459;-86
2023/05/09 05:56:12;;;;;;;;;;;16.20;85.00;;;;;;4996395;28;19968;-86
2023/05/09 05:58:37;;;;;;;;;;;16.30;85.00;;;;;;4979074;28;20472;-86
2023/05/09 06:01:03;;;;;;;;;;;16.30;84.70;;;;;;4993168;28;19918;-86
2023/05/09 06:03:28;;;;;;;;;;;16.40;84.70;;;;;;5009143;28;19965;-87
2023/05/09 06:05:54;;;;;;;;;;;16.50;84.70;;;;;;4983969;28;20433;-86
2023/05/09 06:08:20;;;;;;;;;;;16.50;84.70;;;;;;4975449;28;20492;-88
2023/05/09 06:10:45;;;;;;;;;;;16.60;84.60;;;;;;4976295;28;19910;-89
2023/05/09 06:13:11;;;;;;;;;;;16.60;84.40;;;;;;4993897;28;19957;-89
2023/05/09 06:15:36;;;;;;;;;;;16.60;84.30;;;;;;4978805;28;20422;-89
2023/05/09 06:18:02;;;;;;;;;;;16.60;84.10;;;;;;4978139;28;19916;-89
2023/05/09 06:20:27;;;;;;;;;;;16.60;84.20;;;;;;4972741;28;19964;-89
2023/05/09 06:22:53;;;;;;;;;;;16.60;83.70;;;;;;4995982;28;19914;-89
2023/05/09 06:25:18;;;;;;;;;;;16.70;83.70;;;;;;4979590;28;19914;-89
2023/05/09 06:27:44;;;;;;;;;;;16.70;83.70;;;;;;5005352;28;20439;-89
2023/05/09 06:30:09;;;;;;;;;;;16.90;83.30;;;;;;4995514;28;19914;-89
2023/05/09 06:32:35;;;;;;;;;;;17.00;83.10;;;;;;4996329;28;19928;-89
2023/05/09 06:35:00;;;;;;;;;;;16.90;83.30;;;;;;4993827;28;20298;-88
2023/05/09 06:37:26;;;;;;;;;;;17.10;82.70;;;;;;4994821;28;20001;-89
2023/05/09 06:39:52;;;;;;;;;;;17.10;82.40;;;;;;4994774;28;19917;-89
2023/05/09 06:42:17;;;;;;;;;;;17.20;82.40;;;;;;4994469;28;19914;-89
2023/05/09 06:44:42;;;;;;;;;;;17.20;82.40;;;;;;4993890;28;19972;-89
2023/05/09 06:47:08;;;;;;;;;;;17.30;82.30;;;;;;4994150;28;19989;-90
2023/05/09 06:49:34;;;;;;;;;;;17.50;81.80;;;;;;4995615;28;19952;-90
2023/05/09 06:51:59;;;;;;;;;;;17.60;81.20;;;;;;4978170;28;20442;-90
2023/05/09 06:54:25;;;;;;;;;;;17.70;81.50;;;;;;4993960;28;20295;-90
2023/05/09 06:56:53;;;;;;;;;;;17.80;81.20;;;;;;4977991;28;19917;-90
2023/05/09 06:59:19;;;;;;;;;;;17.70;81.10;;;;;;4978642;28;19914;-89
2023/05/09 07:01:44;;;;;;;;;;;17.70;80.90;;;;;;4978506;28;19963;-89
2023/05/09 07:04:10;;;;;;;;;;;17.70;81.00;;;;;;4987219;28;19937;-90
2023/05/09 07:06:35;;;;;;;;;;;17.80;80.90;;;;;;4993666;28;19940;-90
2023/05/09 07:09:02;;;;;;;;;;;17.80;81.10;;;;;;4995023;28;19916;-89
2023/05/09 07:11:28;;;;;;;;;;;17.90;81.30;;;;;;4994600;28;19910;-89
2023/05/09 07:13:53;;;;;;;;;;;18.00;80.70;;;;;;4993788;28;19913;-90
2023/05/09 07:16:21;;;;;;;;;;;18.10;80.20;;;;;;4995513;28;20008;-89
2023/05/09 07:18:49;;;;;;;;;;;18.10;80.50;;;;;;4994650;28;19910;-89
2023/05/09 07:21:15;;;;;;;;;;;18.20;80.50;;;;;;4992635;28;19914;-90
2023/05/09 07:23:40;;;;;;;;;;;18.20;80.30;;;;;;4986058;28;19909;-89
2023/05/09 07:26:06;;;;;;;;;;;18.20;80.20;;;;;;4977990;28;19910;-90
2023/05/09 07:28:31;;;;;;;;;;;18.30;80.50;;;;;;4977878;28;19965;-90
2023/05/09 07:30:56;;;;;;;;;;;18.30;80.20;;;;;;4994192;28;19916;-90
2023/05/09 07:33:22;;;;;;;;;;;18.30;80.20;;;;;;4994824;28;20343;-90
2023/05/09 07:35:48;;;;;;;;;;;18.30;80.10;;;;;;5005745;28;19981;-90
2023/05/09 07:38:13;;;;;;;;;;;18.40;79.80;;;;;;5013949;28;19906;-91
2023/05/09 07:40:40;;;;;;;;;;;18.30;79.70;;;;;;5003732;28;19924;-90
2023/05/09 07:43:05;;;;;;;;;;;18.30;80.10;;;;;;4977724;28;19917;-88
2023/05/09 07:45:31;;;;;;;;;;;18.40;79.80;;;;;;4976836;28;19910;-90
2023/05/09 07:47:58;;;;;;;;;;;18.40;79.70;;;;;;4977363;28;19956;-90
2023/05/09 07:50:24;;;;;;;;;;;18.50;79.10;;;;;;4993345;28;20470;-91
2023/05/09 07:52:50;;;;;;;;;;;18.50;79.60;;;;;;4987561;28;19946;-90
2023/05/09 07:55:16;;;;;;;;;;;18.40;79.50;;;;;;4992319;28;19909;-91
2023/05/09 07:57:41;;;;;;;;;;;18.40;79.60;;;;;;4977928;28;20005;-90
2023/05/09 08:00:07;;;;;;;;;;;18.60;79.40;;;;;;4976914;28;19910;-88
2023/05/09 08:02:33;;;;;;;;;;;18.80;79.10;;;;;;4973680;28;19921;-90
2023/05/09 08:04:58;;;;;;;;;;;18.90;78.00;;;;;;4975629;28;20415;-91
2023/05/09 08:07:24;;;;;;;;;;;19.00;76.90;;;;;;4977301;28;20569;-91
2023/05/09 08:09:59;;;;;;;;;;;19.00;76.50;;;;;;4976045;28;20104;-90
2023/05/09 08:12:25;;;;;;;;;;;18.90;77.10;;;;;;4994259;28;19917;-90
2023/05/09 08:14:50;;;;;;;;;;;18.90;76.80;;;;;;5001321;28;19914;-91
2023/05/09 08:17:16;;;;;;;;;;;18.90;77.40;;;;;;5017088;28;19917;-90
2023/05/09 08:19:42;;;;;;;;;;;19.00;77.50;;;;;;5016262;28;19913;-93
2023/05/09 08:22:07;;;;;;;;;;;19.00;76.70;;;;;;4987897;28;19924;-89
2023/05/09 08:24:33;;;;;;;;;;;19.10;76.30;;;;;;4976633;28;19914;-90
2023/05/09 08:26:58;;;;;;;;;;;19.30;75.70;;;;;;4976842;28;19910;-90
2023/05/09 08:29:24;;;;;;;;;;;19.50;75.40;;;;;;4977292;28;19917;-90
2023/05/09 08:31:50;;;;;;;;;;;19.50;73.90;;;;;;4990707;28;19918;-90
2023/05/09 08:34:25;;;;;;;;;;;19.50;74.00;;;;;;4995762;28;19949;-92
2023/05/09 08:36:52;;;;;;;;;;;19.50;74.10;;;;;;4999295;28;19937;-91
2023/05/09 08:39:18;;;;;;;;;;;19.50;74.00;;;;;;4974512;28;20278;-91
2023/05/09 08:41:43;;;;;;;;;;;19.50;74.30;;;;;;4978411;28;19972;-92
2023/05/09 08:44:12;;;;;;;;;;;19.60;74.10;;;;;;4994348;28;19921;-91
2023/05/09 08:46:51;;;;;;;;;;;19.50;74.20;;;;;;4992899;28;19938;-91
2023/05/09 08:49:42;;;;;;;;;;;19.60;74.60;;;;;;4976877;28;19914;-91
2023/05/09 08:52:10;;;;;;;;;;;19.80;74.50;;;;;;4972393;28;19921;-90
2023/05/09 08:54:36;;;;;;;;;;;19.70;73.90;;;;;;4974600;28;19922;-91
2023/05/09 08:57:01;;;;;;;;;;;19.80;73.50;;;;;;5001432;28;19914;-91
2023/05/09 08:59:33;;;;;;;;;;;19.80;72.60;;;;;;4981114;28;20836;-91
2023/05/09 09:02:04;;;;;;;;;;;20.00;72.50;;;;;;4997107;28;19907;-94
2023/05/09 09:04:30;;;;;;;;;;;19.80;72.60;;;;;;4996840;28;19909;-93
2023/05/09 09:06:59;;;;;;;;;;;19.60;73.50;;;;;;4983328;28;20344;-92
2023/05/09 09:09:33;;;;;;;;;;;19.80;73.50;;;;;;5002105;28;19933;-92
2023/05/09 09:11:58;;;;;;;;;;;19.90;72.10;;;;;;5006874;28;19917;-93
2023/05/09 09:14:27;;;;;;;;;;;19.90;71.10;;;;;;4999796;28;19916;-93
2023/05/09 09:16:54;;;;;;;;;;;20.00;71.00;;;;;;4989122;28;19949;-89
2023/05/09 09:19:21;;;;;;;;;;;20.00;70.80;;;;;;4978231;28;19917;-89
2023/05/09 09:21:48;;;;;;;;;;;20.00;70.30;;;;;;5002731;28;19921;-88
2023/05/09 09:24:21;;;;;;;;;;;20.00;69.70;;;;;;4994047;28;19918;-90
2023/05/09 09:26:48;;;;;;;;;;;20.00;68.50;;;;;;4976092;28;19914;-89
2023/05/09 09:29:14;;;;;;;;;;;20.00;68.90;;;;;;4997702;28;20012;-88
2023/05/09 09:31:42;;;;;;;;;;;20.00;69.30;;;;;;4990230;28;19949;-87
2023/05/09 09:34:08;;;;;;;;;;;20.00;69.70;;;;;;4986498;28;19969;-88
2023/05/09 09:36:35;;;;;;;;;;;20.10;69.50;;;;;;4980182;28;19975;-87
2023/05/09 09:39:07;;;;;;;;;;;20.10;70.20;;;;;;4978701;28;19910;-88
2023/05/09 09:41:33;;;;;;;;;;;20.10;69.70;;;;;;4979552;28;19917;-90
2023/05/09 09:44:05;;;;;;;;;;;20.40;69.40;;;;;;4996052;28;19918;-89
2023/05/09 09:46:39;;;;;;;;;;;20.40;68.70;;;;;;4995163;28;19979;-90
2023/05/09 09:49:07;;;;;;;;;;;20.50;68.80;;;;;;4995005;28;20024;-89
2023/05/09 09:51:36;;;;;;;;;;;20.50;69.20;;;;;;4976838;28;19917;-89
2023/05/09 09:54:07;;;;;;;;;;;20.60;68.60;;;;;;4987798;28;19944;-89
2023/05/09 09:56:39;;;;;;;;;;;20.80;67.50;;;;;;5017172;28;19917;-89
2023/05/09 09:59:14;;;;;;;;;;;20.90;65.90;;;;;;5022981;28;19937;-89
2023/05/09 10:01:53;;;;;;;;;;;21.00;66.40;;;;;;4988763;28;19918;-89
2023/05/09 10:04:18;;;;;;;;;;;21.10;66.80;;;;;;4983149;28;19921;-89
2023/05/09 10:06:53;;;;;;;;;;;21.20;66.70;;;;;;5002921;28;19918;-88
2023/05/09 10:09:20;;;;;;;;;;;21.10;66.50;;;;;;4979472;28;20347;-90
2023/05/09 10:11:49;;;;;;;;;;;20.80;66.10;;;;;;4994191;28;19917;-89
2023/05/09 10:14:16;;;;;;;;;;;20.70;65.70;;;;;;4979274;28;19944;-88
2023/05/09 10:16:41;;;;;;;;;;;20.60;66.60;;;;;;4992567;28;20299;-86
2023/05/09 10:19:07;;;;;;;;;;;20.80;66.70;;;;;;4978456;28;19921;-86
2023/05/09 10:21:33;;;;;;;;;;;20.80;65.50;;;;;;4989301;28;19918;-86
2023/05/09 10:23:59;;;;;;;;;;;21.10;64.40;;;;;;4976753;28;19914;-86
2023/05/09 10:26:27;;;;;;;;;;;21.00;64.90;;;;;;4994729;28;20509;-86
2023/05/09 10:28:56;;;;;;;;;;;21.10;65.20;;;;;;4979297;28;19924;-86
2023/05/09 10:31:26;;;;;;;;;;;21.10;64.70;;;;;;4974402;28;19922;-86
2023/05/09 10:33:56;;;;;;;;;;;21.30;64.90;;;;;;4986069;28;20017;-92
2023/05/09 10:36:29;;;;;;;;;;;21.30;64.70;;;;;;4985261;28;19918;-87
2023/05/09 10:38:55;;;;;;;;;;;21.60;63.00;;;;;;4989423;28;19952;-87
2023/05/09 10:41:24;;;;;;;;;;;21.60;61.90;;;;;;4991417;28;19953;-87
2023/05/09 10:46:18;;;;;;;;;;;21.60;62.60;;;;;;5004626;28;19929;-86
2023/05/09 10:48:43;;;;;;;;;;;21.80;61.70;;;;;;4999550;28;19924;-83
2023/05/09 10:51:09;;;;;;;;;;;21.70;61.50;;;;;;5006522;28;19918;-84
2023/05/09 10:53:44;;;;;;;;;;;21.90;60.10;;;;;;4999445;28;19928;-85
2023/05/09 10:56:23;;;;;;;;;;;22.10;60.50;;;;;;4995555;28;19992;-85
2023/05/09 10:58:49;;;;;;;;;;;22.20;59.40;;;;;;5000892;28;19990;-87
2023/05/09 11:01:26;;;;;;;;;;;22.10;59.20;;;;;;5002407;28;20063;-85
2023/05/09 11:03:56;;;;;;;;;;;22.20;57.60;;;;;;5001633;28;20092;-86
2023/05/09 11:06:48;;;;;;;;;;;22.20;58.00;;;;;;5001882;28;20297;-82
2023/05/09 11:09:27;;;;;;;;;;;22.30;58.50;;;;;;5004793;28;19913;-83
2023/05/09 11:11:54;;;;;;;;;;;22.20;59.40;;;;;;5002403;28;19913;-83
2023/05/09 11:14:27;;;;;;;;;;;22.20;58.30;;;;;;5004177;28;19914;-83
2023/05/09 11:16:57;;;;;;;;;;;22.20;57.90;;;;;;5005399;28;19968;-82
2023/05/09 11:19:33;;;;;;;;;;;22.30;58.00;;;;;;5002245;28;20127;-83
2023/05/09 11:21:59;;;;;;;;;;;22.30;57.80;;;;;;5000959;28;19921;-84
2023/05/09 11:24:29;;;;;;;;;;;22.40;57.50;;;;;;5003268;28;19933;-83
2023/05/09 11:26:56;;;;;;;;;;;22.50;57.20;;;;;;5004694;28;20048;-82
2023/05/09 11:29:25;;;;;;;;;;;22.60;55.20;;;;;;5006781;28;20323;-82
2023/05/09 11:32:04;;;;;;;;;;;22.40;55.20;;;;;;5000029;28;20060;-83
2023/05/09 11:34:30;;;;;;;;;;;22.60;54.70;;;;;;5017030;28;19955;-84
2023/05/09 11:37:05;;;;;;;;;;;22.60;53.00;;;;;;4999793;28;20012;-84
2023/05/09 11:39:31;;;;;;;;;;;22.50;54.40;;;;;;5010928;28;19914;-83
2023/05/09 11:41:56;;;;;;;;;;;22.50;54.10;;;;;;5005024;28;19917;-84
2023/05/09 11:44:23;;;;;;;;;;;22.50;55.60;;;;;;5019234;28;19964;-84
2023/05/09 11:46:48;;;;;;;;;;;22.50;54.40;;;;;;5007330;28;19913;-83
2023/05/09 11:49:14;;;;;;;;;;;22.50;54.70;;;;;;5014913;28;19960;-84
2023/05/09 11:51:40;;;;;;;;;;;22.70;54.70;;;;;;5008265;28;19948;-84
2023/05/09 11:54:06;;;;;;;;;;;22.70;55.40;;;;;;5030647;28;19910;-83
2023/05/09 11:56:32;;;;;;;;;;;22.60;55.30;;;;;;5023724;28;19970;-83
2023/05/09 11:58:58;;;;;;;;;;;22.60;56.30;;;;;;5020622;28;19925;-83
2023/05/09 12:01:24;;;;;;;;;;;22.50;55.50;;;;;;5022364;28;20586;-84
2023/05/09 12:03:50;;;;;;;;;;;22.50;57.10;;;;;;5017608;28;19909;-84
2023/05/09 12:06:17;;;;;;;;;;;22.60;54.90;;;;;;5019931;28;19913;-85
2023/05/09 12:08:43;;;;;;;;;;;22.70;55.10;;;;;;5018038;28;19921;-83
2023/05/09 12:11:08;;;;;;;;;;;22.70;54.10;;;;;;5012261;28;19921;-84
2023/05/09 12:13:37;;;;;;;;;;;22.60;54.60;;;;;;5012054;28;19920;-84
2023/05/09 12:16:02;;;;;;;;;;;22.40;55.80;;;;;;5007385;28;20317;-83
2023/05/09 12:18:28;;;;;;;;;;;22.30;54.60;;;;;;5020345;28;19914;-83
2023/05/09 12:20:53;;;;;;;;;;;22.10;55.60;;;;;;5019659;28;19914;-84
2023/05/09 12:23:19;;;;;;;;;;;22.00;56.80;;;;;;5019196;28;19921;-83
2023/05/09 12:25:51;;;;;;;;;;;21.90;56.30;;;;;;5015443;28;20010;-83
2023/05/09 12:28:17;;;;;;;;;;;22.00;55.50;;;;;;5001637;28;19914;-84
2023/05/09 12:30:43;;;;;;;;;;;22.00;56.50;;;;;;5011053;28;19948;-82
2023/05/09 12:33:11;;;;;;;;;;;22.00;56.00;;;;;;5013836;28;19951;-82
2023/05/09 12:35:39;;;;;;;;;;;22.20;56.20;;;;;;5014701;28;19913;-83
2023/05/09 12:38:05;;;;;;;;;;;22.30;55.50;;;;;;5003577;28;19918;-83
2023/05/09 12:40:30;;;;;;;;;;;22.30;55.60;;;;;;5003232;28;19910;-83
2023/05/09 12:42:59;;;;;;;;;;;22.20;56.20;;;;;;5005307;28;19915;-83
2023/05/09 12:45:25;;;;;;;;;;;22.20;55.70;;;;;;5016807;28;19918;-84
2023/05/09 12:47:52;;;;;;;;;;;22.20;56.50;;;;;;5013672;28;19957;-83
2023/05/09 12:50:18;;;;;;;;;;;22.40;56.60;;;;;;5004164;28;20314;-83
2023/05/09 12:52:49;;;;;;;;;;;22.60;55.50;;;;;;5011015;28;19920;-83
2023/05/09 12:55:15;;;;;;;;;;;22.60;55.30;;;;;;5010515;28;19914;-83
2023/05/09 12:57:41;;;;;;;;;;;22.60;55.40;;;;;;5003533;28;19936;-82
2023/05/09 13:00:11;;;;;;;;;;;22.70;57.10;;;;;;5004529;28;19921;-83
2023/05/09 13:02:38;;;;;;;;;;;22.80;55.30;;;;;;5012347;28;19940;-83
2023/05/09 13:05:16;;;;;;;;;;;22.80;56.20;;;;;;5007828;28;19917;-83
2023/05/09 13:07:42;;;;;;;;;;;22.80;55.00;;;;;;5019161;28;20242;-82
2023/05/09 13:10:12;;;;;;;;;;;22.80;55.20;;;;;;5013487;28;19995;-83
2023/05/09 13:12:38;;;;;;;;;;;22.70;55.80;;;;;;5015825;28;19968;-83
2023/05/09 13:15:04;;;;;;;;;;;22.80;54.90;;;;;;5003754;28;20052;-83
2023/05/09 13:17:30;;;;;;;;;;;22.70;54.80;;;;;;5002924;28;19914;-82
2023/05/09 13:19:55;;;;;;;;;;;22.60;55.10;;;;;;5012618;28;20396;-83
2023/05/09 13:22:21;;;;;;;;;;;22.80;55.80;;;;;;5014005;28;19925;-83
2023/05/09 13:24:46;;;;;;;;;;;22.70;56.10;;;;;;5008692;28;19925;-83
2023/05/09 13:27:12;;;;;;;;;;;22.90;55.80;;;;;;5011722;28;19977;-82
2023/05/09 13:29:37;;;;;;;;;;;22.90;55.60;;;;;;5018731;28;19917;-82
2023/05/09 13:32:03;;;;;;;;;;;22.90;54.90;;;;;;5015882;28;19953;-82
2023/05/09 13:34:28;;;;;;;;;;;22.90;54.40;;;;;;5013421;28;19933;-82
2023/05/09 13:36:54;;;;;;;;;;;23.00;54.70;;;;;;5016303;28;19917;-82
2023/05/09 13:39:19;;;;;;;;;;;23.00;54.00;;;;;;5016031;28;20397;-83
2023/05/09 13:41:45;;;;;;;;;;;23.00;54.60;;;;;;5005277;28;19917;-82
2023/05/09 13:44:11;;;;;;;;;;;22.90;54.90;;;;;;5012147;28;19925;-83
2023/05/09 13:46:36;;;;;;;;;;;22.80;55.20;;;;;;5005285;28;20023;-81
2023/05/09 13:49:02;;;;;;;;;;;22.80;55.70;;;;;;5004575;28;19929;-82
2023/05/09 13:51:28;;;;;;;;;;;22.80;55.80;;;;;;5006343;28;20278;-83
2023/05/09 13:53:53;;;;;;;;;;;22.90;55.50;;;;;;5008132;28;19985;-81
2023/05/09 13:56:19;;;;;;;;;;;22.80;56.30;;;;;;5008291;28;19913;-81
2023/05/09 13:58:45;;;;;;;;;;;22.80;54.80;;;;;;5012013;28;19913;-82
2023/05/09 14:01:10;;;;;;;;;;;22.70;55.20;;;;;;5008624;28;19974;-80
2023/05/09 14:03:36;;;;;;;;;;;22.50;56.60;;;;;;5008321;28;20408;-84
2023/05/09 14:06:02;;;;;;;;;;;22.20;57.10;;;;;;5009774;28;20617;-83
2023/05/09 14:08:28;;;;;;;;;;;22.30;57.20;;;;;;5005819;28;19918;-82
2023/05/09 14:10:54;;;;;;;;;;;22.10;57.20;;;;;;5016164;28;19948;-82
2023/05/09 14:13:19;;;;;;;;;;;22.10;58.10;;;;;;5004877;28;20385;-84
2023/05/09 14:15:45;;;;;;;;;;;22.00;59.30;;;;;;5006982;28;19960;-82
2023/05/09 14:18:11;;;;;;;;;;;21.80;58.80;;;;;;5003941;28;19921;-81
2023/05/09 14:20:36;;;;;;;;;;;21.80;59.20;;;;;;5008026;28;19920;-82